Time;durP1;ratioP1;P1;durP2;ratioP2;P2;SDS_P1;SDS_P2;PMS_P1;PMS_P2;Temp;Humidity;BMP_temperature;BMP_pressure;BME280_temperature;BME280_humidity;BME280_pressure;Samples;Min_cycle;Max_cycle;Signal;HPM_P1;HPM_P2
2024/02/03 00:02:00;;;;;;;222.97;55.77;;;;;;;;;;5082112;28;20441;-45
2024/02/03 00:04:26;;;;;;;224.13;56.92;;;;;;;;;;5102823;28;20488;-45
2024/02/03 00:06:52;;;;;;;221.03;55.40;;;;;;;;;;5089187;28;20178;-46
2024/02/03 00:09:18;;;;;;;220.77;54.20;;;;;;;;;;5085140;28;20780;-45
2024/02/03 00:11:47;;;;;;;221.18;55.53;;;;;;;;;;5085051;28;20431;-45
2024/02/03 00:14:13;;;;;;;222.25;56.10;;;;;;;;;;5086373;28;20210;-45
2024/02/03 00:16:39;;;;;;;223.50;56.08;;;;;;;;;;5084789;28;20204;-45
2024/02/03 00:19:05;;;;;;;223.07;55.35;;;;;;;;;;5085191;28;20181;-46
2024/02/03 00:21:31;;;;;;;222.73;54.80;;;;;;;;;;5088402;28;20194;-46
2024/02/03 00:23:57;;;;;;;220.98;53.45;;;;;;;;;;5089786;28;20411;-45
2024/02/03 00:26:23;;;;;;;222.18;55.97;;;;;;;;;;5085263;28;20549;-46
2024/02/03 00:28:51;;;;;;;221.53;54.50;;;;;;;;;;5085218;28;20181;-45
2024/02/03 00:31:17;;;;;;;220.82;54.03;;;;;;;;;;5086223;28;20503;-45
2024/02/03 00:33:43;;;;;;;218.93;53.33;;;;;;;;;;5084885;28;20197;-45
2024/02/03 00:36:09;;;;;;;219.93;52.95;;;;;;;;;;5091365;28;20446;-45
2024/02/03 00:38:35;;;;;;;222.85;55.03;;;;;;;;;;5082385;28;20637;-45
2024/02/03 00:41:01;;;;;;;221.33;55.90;;;;;;;;;;5089024;28;20222;-46
2024/02/03 00:43:26;;;;;;;229.27;61.37;;;;;;;;;;5080775;28;20763;-46
2024/02/03 00:45:52;;;;;;;220.10;53.77;;;;;;;;;;5084539;28;20545;-46
2024/02/03 00:48:18;;;;;;;221.57;53.70;;;;;;;;;;5084601;28;20399;-45
2024/02/03 00:50:44;;;;;;;221.57;54.40;;;;;;;;;;5085868;28;20923;-46
2024/02/03 00:53:10;;;;;;;220.67;53.27;;;;;;;;;;5083339;28;20412;-46
2024/02/03 00:55:36;;;;;;;219.83;53.20;;;;;;;;;;5075402;28;20459;-45
2024/02/03 00:58:02;;;;;;;222.07;54.87;;;;;;;;;;5077795;28;20438;-45
2024/02/03 01:00:28;;;;;;;221.20;54.97;;;;;;;;;;5082434;28;20420;-46
2024/02/03 01:02:55;;;;;;;220.77;54.77;;;;;;;;;;5080530;28;20427;-46
2024/02/03 01:05:21;;;;;;;221.05;54.72;;;;;;;;;;5088579;28;20407;-46
2024/02/03 01:07:47;;;;;;;218.57;52.80;;;;;;;;;;5088121;28;20676;-46
2024/02/03 01:10:13;;;;;;;221.85;55.17;;;;;;;;;;5088069;28;20623;-46
2024/02/03 01:12:39;;;;;;;223.57;55.67;;;;;;;;;;5090256;28;20646;-46
2024/02/03 01:15:06;;;;;;;221.02;53.38;;;;;;;;;;5081275;28;20197;-45
2024/02/03 01:17:32;;;;;;;224.45;55.78;;;;;;;;;;5089204;28;20303;-45
2024/02/03 01:19:58;;;;;;;222.07;54.40;;;;;;;;;;5088060;28;20226;-45
2024/02/03 01:22:24;;;;;;;221.30;53.45;;;;;;;;;;5087797;28;20194;-45
2024/02/03 01:24:50;;;;;;;222.20;55.43;;;;;;;;;;5086843;28;20546;-46
2024/02/03 01:27:16;;;;;;;222.87;54.60;;;;;;;;;;5087143;28;20483;-45
2024/02/03 01:29:42;;;;;;;222.18;53.80;;;;;;;;;;5089601;28;20887;-45
2024/02/03 01:32:08;;;;;;;227.97;59.93;;;;;;;;;;5091193;28;20203;-45
2024/02/03 01:34:35;;;;;;;220.63;53.50;;;;;;;;;;5082074;28;20795;-44
2024/02/03 01:37:04;;;;;;;222.30;55.35;;;;;;;;;;5089368;28;20261;-43
2024/02/03 01:39:30;;;;;;;223.07;55.75;;;;;;;;;;5076602;28;20174;-44
2024/02/03 01:41:56;;;;;;;222.48;56.00;;;;;;;;;;5092012;28;20193;-44
2024/02/03 01:44:24;;;;;;;222.35;56.08;;;;;;;;;;5092428;28;20176;-43
2024/02/03 01:46:50;;;;;;;221.70;55.83;;;;;;;;;;5088308;28;20178;-44
2024/02/03 01:49:16;;;;;;;226.95;59.95;;;;;;;;;;5088170;28;20954;-44
2024/02/03 01:51:42;;;;;;;224.30;56.42;;;;;;;;;;5091227;28;20200;-44
2024/02/03 01:54:09;;;;;;;223.23;56.63;;;;;;;;;;5087919;28;20223;-43
2024/02/03 01:56:36;;;;;;;223.90;56.40;;;;;;;;;;5091045;28;20831;-44
2024/02/03 01:59:03;;;;;;;220.93;55.45;;;;;;;;;;5093214;28;20675;-45
2024/02/03 02:01:29;;;;;;;227.00;59.30;;;;;;;;;;5088594;28;20197;-44
2024/02/03 02:03:55;;;;;;;221.68;55.60;;;;;;;;;;5086687;28;20185;-44
2024/02/03 02:06:21;;;;;;;221.27;54.75;;;;;;;;;;5087701;28;20180;-44
2024/02/03 02:08:49;;;;;;;226.40;57.30;;;;;;;;;;5088018;28;20196;-44
2024/02/03 02:11:15;;;;;;;224.15;56.22;;;;;;;;;;5088184;28;20225;-45
2024/02/03 02:13:41;;;;;;;226.43;58.72;;;;;;;;;;5088988;28;20178;-45
2024/02/03 02:16:07;;;;;;;224.07;57.10;;;;;;;;;;5091259;28;20197;-45
2024/02/03 02:18:34;;;;;;;223.73;56.55;;;;;;;;;;5088849;28;20214;-45
2024/02/03 02:21:00;;;;;;;226.07;59.03;;;;;;;;;;5087073;28;20192;-45
2024/02/03 02:23:26;;;;;;;229.82;61.45;;;;;;;;;;5087968;28;20191;-44
2024/02/03 02:25:52;;;;;;;223.77;56.03;;;;;;;;;;5087170;28;20657;-45
2024/02/03 02:28:18;;;;;;;224.07;57.30;;;;;;;;;;5091925;28;20488;-43
2024/02/03 02:30:44;;;;;;;221.60;55.33;;;;;;;;;;5089409;28;20227;-44
2024/02/03 02:33:10;;;;;;;224.65;58.20;;;;;;;;;;5091834;28;20187;-45
2024/02/03 02:35:36;;;;;;;225.02;56.97;;;;;;;;;;5083215;28;20255;-45
2024/02/03 02:38:03;;;;;;;227.15;59.00;;;;;;;;;;5091902;28;20189;-45
2024/02/03 02:40:29;;;;;;;224.18;57.70;;;;;;;;;;5084749;28;20173;-45
2024/02/03 02:42:55;;;;;;;223.87;56.97;;;;;;;;;;5086891;28;20199;-45
2024/02/03 02:45:21;;;;;;;224.80;57.63;;;;;;;;;;5086779;28;20410;-44
2024/02/03 02:47:47;;;;;;;223.63;56.77;;;;;;;;;;5088303;28;20174;-44
2024/02/03 02:50:13;;;;;;;224.57;58.03;;;;;;;;;;5085767;28;21010;-45
2024/02/03 02:52:39;;;;;;;227.07;59.13;;;;;;;;;;5088636;28;20436;-44
2024/02/03 02:55:05;;;;;;;225.02;57.80;;;;;;;;;;5074767;28;20481;-44
2024/02/03 02:57:31;;;;;;;227.02;59.00;;;;;;;;;;5079539;28;20181;-43
2024/02/03 02:59:57;;;;;;;224.65;58.03;;;;;;;;;;5080831;28;20235;-43
2024/02/03 03:02:23;;;;;;;223.55;57.17;;;;;;;;;;5086613;28;20185;-44
2024/02/03 03:04:49;;;;;;;226.73;59.37;;;;;;;;;;5086246;28;20692;-45
2024/02/03 03:07:16;;;;;;;226.52;58.78;;;;;;;;;;5083496;28;20412;-44
2024/02/03 03:09:42;;;;;;;227.05;58.92;;;;;;;;;;5077869;28;20170;-45
2024/02/03 03:12:11;;;;;;;226.85;59.22;;;;;;;;;;5091277;28;20216;-46
2024/02/03 03:14:37;;;;;;;227.90;61.53;;;;;;;;;;5088029;28;20172;-45
2024/02/03 03:17:04;;;;;;;228.40;60.45;;;;;;;;;;5085098;28;20256;-44
2024/02/03 03:19:32;;;;;;;226.93;58.75;;;;;;;;;;5086840;28;20169;-43
2024/02/03 03:21:58;;;;;;;227.48;60.13;;;;;;;;;;5085268;28;20206;-44
2024/02/03 03:24:24;;;;;;;226.15;58.97;;;;;;;;;;5085112;28;20629;-45
2024/02/03 03:26:51;;;;;;;224.25;57.28;;;;;;;;;;5084653;28;20177;-43
2024/02/03 03:29:16;;;;;;;226.18;60.08;;;;;;;;;;5091278;28;20188;-43
2024/02/03 03:31:43;;;;;;;224.53;57.60;;;;;;;;;;5082027;28;20205;-45
2024/02/03 03:34:09;;;;;;;226.05;58.35;;;;;;;;;;5098713;28;20800;-42
2024/02/03 03:36:35;;;;;;;226.95;58.95;;;;;;;;;;5084088;28;20284;-43
2024/02/03 03:39:01;;;;;;;227.37;58.37;;;;;;;;;;5084562;28;20248;-43
2024/02/03 03:41:27;;;;;;;222.80;56.40;;;;;;;;;;5083994;28;20411;-43
2024/02/03 03:43:53;;;;;;;225.95;57.80;;;;;;;;;;5084783;28;20921;-43
2024/02/03 03:46:19;;;;;;;227.38;57.90;;;;;;;;;;5088890;28;20247;-43
2024/02/03 03:48:45;;;;;;;224.30;55.50;;;;;;;;;;5087374;28;20261;-44
2024/02/03 03:51:10;;;;;;;226.07;58.03;;;;;;;;;;5076604;28;20435;-44
2024/02/03 03:53:36;;;;;;;226.27;58.63;;;;;;;;;;5084468;28;20529;-42
2024/02/03 03:56:03;;;;;;;227.67;59.77;;;;;;;;;;5083862;28;20459;-43
2024/02/03 03:58:29;;;;;;;222.82;55.58;;;;;;;;;;5084061;28;20771;-44
2024/02/03 04:00:55;;;;;;;228.77;60.47;;;;;;;;;;5083926;28;20192;-42
2024/02/03 04:03:20;;;;;;;226.03;58.30;;;;;;;;;;5088735;28;20443;-43
2024/02/03 04:05:46;;;;;;;227.23;58.10;;;;;;;;;;5087178;28;20442;-43
2024/02/03 04:08:12;;;;;;;226.57;58.30;;;;;;;;;;5082338;28;20795;-43
2024/02/03 04:10:38;;;;;;;225.50;57.00;;;;;;;;;;5086381;28;20181;-44
2024/02/03 04:13:04;;;;;;;226.50;58.57;;;;;;;;;;5083608;28;20439;-43
2024/02/03 04:15:30;;;;;;;229.13;59.55;;;;;;;;;;5083173;28;20976;-43
2024/02/03 04:17:59;;;;;;;226.30;57.13;;;;;;;;;;5084025;28;20162;-45
2024/02/03 04:20:26;;;;;;;227.50;58.60;;;;;;;;;;5088092;28;20174;-43
2024/02/03 04:22:52;;;;;;;227.88;59.30;;;;;;;;;;5080800;28;20204;-43
2024/02/03 04:25:18;;;;;;;228.23;58.47;;;;;;;;;;5088434;28;20178;-43
2024/02/03 04:27:44;;;;;;;226.43;58.47;;;;;;;;;;5086860;28;20416;-42
2024/02/03 04:30:10;;;;;;;228.13;58.50;;;;;;;;;;5083457;28;20444;-44
2024/02/03 04:32:36;;;;;;;224.57;56.70;;;;;;;;;;5083558;28;20991;-43
2024/02/03 04:35:02;;;;;;;226.37;58.17;;;;;;;;;;5083460;28;20265;-44
2024/02/03 04:37:28;;;;;;;227.27;58.30;;;;;;;;;;5085112;28;20922;-44
2024/02/03 04:39:54;;;;;;;227.00;59.30;;;;;;;;;;5085888;28;20423;-43
2024/02/03 04:42:20;;;;;;;228.25;61.22;;;;;;;;;;5092152;28;20432;-44
2024/02/03 04:44:46;;;;;;;226.70;58.13;;;;;;;;;;5090455;28;20178;-42
2024/02/03 04:47:12;;;;;;;227.87;58.20;;;;;;;;;;5087349;28;20647;-43
2024/02/03 04:49:38;;;;;;;226.53;57.00;;;;;;;;;;5087351;28;20920;-43
2024/02/03 04:52:04;;;;;;;226.97;57.90;;;;;;;;;;5087075;28;20799;-43
2024/02/03 04:54:30;;;;;;;227.00;58.33;;;;;;;;;;5080729;28;20444;-42
2024/02/03 04:56:56;;;;;;;223.90;55.40;;;;;;;;;;5073030;28;20244;-43
2024/02/03 04:59:21;;;;;;;226.93;58.00;;;;;;;;;;5084408;28;20905;-43
2024/02/03 05:01:47;;;;;;;236.43;64.73;;;;;;;;;;5086004;28;20451;-44
2024/02/03 05:04:13;;;;;;;225.87;56.87;;;;;;;;;;5070485;28;20424;-44
2024/02/03 05:06:39;;;;;;;227.47;58.27;;;;;;;;;;5081049;28;20446;-43
2024/02/03 05:09:07;;;;;;;225.07;57.37;;;;;;;;;;5087340;28;20422;-43
2024/02/03 05:11:33;;;;;;;225.40;55.95;;;;;;;;;;5088236;28;20427;-42
2024/02/03 05:13:59;;;;;;;226.40;57.97;;;;;;;;;;5089414;28;20188;-42
2024/02/03 05:16:26;;;;;;;225.33;55.90;;;;;;;;;;5086420;28;20201;-43
2024/02/03 05:18:52;;;;;;;226.93;58.13;;;;;;;;;;5086468;28;20455;-43
2024/02/03 05:21:18;;;;;;;227.15;57.85;;;;;;;;;;5086572;28;20185;-43
2024/02/03 05:23:44;;;;;;;225.90;56.35;;;;;;;;;;5088283;28;20185;-43
2024/02/03 05:26:10;;;;;;;222.03;54.77;;;;;;;;;;5091586;28;20185;-43
2024/02/03 05:28:36;;;;;;;225.10;56.63;;;;;;;;;;5098590;28;20424;-43
2024/02/03 05:31:02;;;;;;;226.00;57.20;;;;;;;;;;5086645;28;20652;-43
2024/02/03 05:33:30;;;;;;;226.33;57.80;;;;;;;;;;5097662;28;20855;-44
2024/02/03 05:35:56;;;;;;;225.05;55.97;;;;;;;;;;5076702;28;20809;-43
2024/02/03 05:38:22;;;;;;;224.77;57.63;;;;;;;;;;5086765;28;20177;-44
2024/02/03 05:40:48;;;;;;;226.87;57.87;;;;;;;;;;5087625;28;20893;-43
2024/02/03 05:43:14;;;;;;;225.97;57.30;;;;;;;;;;5091118;28;20412;-42
2024/02/03 05:45:40;;;;;;;225.07;55.73;;;;;;;;;;5096729;28;20431;-43
2024/02/03 05:48:07;;;;;;;227.55;57.63;;;;;;;;;;5085409;28;20422;-43
2024/02/03 05:50:35;;;;;;;225.65;55.55;;;;;;;;;;5087734;28;20244;-43
2024/02/03 05:53:01;;;;;;;223.40;55.65;;;;;;;;;;5084180;28;20668;-44
2024/02/03 05:55:27;;;;;;;224.87;56.77;;;;;;;;;;5085620;28;20216;-42
2024/02/03 05:57:54;;;;;;;226.07;57.73;;;;;;;;;;5085403;28;20409;-43
2024/02/03 06:00:20;;;;;;;225.48;57.03;;;;;;;;;;5090736;28;20442;-43
2024/02/03 06:02:47;;;;;;;226.30;58.40;;;;;;;;;;5083080;28;20265;-42
2024/02/03 06:05:14;;;;;;;225.30;56.72;;;;;;;;;;5089319;28;20185;-43
2024/02/03 06:07:40;;;;;;;226.02;57.47;;;;;;;;;;5089937;28;20208;-44
2024/02/03 06:10:06;;;;;;;225.23;56.85;;;;;;;;;;5085890;28;20188;-44
2024/02/03 06:12:34;;;;;;;226.32;56.63;;;;;;;;;;5085854;28;20287;-44
2024/02/03 06:15:00;;;;;;;227.25;59.13;;;;;;;;;;5086309;28;20235;-43
2024/02/03 06:17:26;;;;;;;228.77;59.85;;;;;;;;;;5086079;28;20162;-42
2024/02/03 06:19:53;;;;;;;226.45;57.08;;;;;;;;;;5086579;28;20182;-43
2024/02/03 06:22:19;;;;;;;226.55;56.80;;;;;;;;;;5090564;28;20247;-44
2024/02/03 06:24:45;;;;;;;224.73;56.20;;;;;;;;;;5089128;28;20181;-42
2024/02/03 06:27:11;;;;;;;224.83;56.47;;;;;;;;;;5085665;28;20425;-43
2024/02/03 06:29:37;;;;;;;226.47;57.90;;;;;;;;;;5086157;28;20450;-43
2024/02/03 06:32:04;;;;;;;226.07;57.57;;;;;;;;;;5086431;28;20443;-43
2024/02/03 06:34:30;;;;;;;226.07;57.25;;;;;;;;;;5085732;28;20406;-44
2024/02/03 06:36:56;;;;;;;222.63;55.67;;;;;;;;;;5079380;28;20201;-43
2024/02/03 06:39:23;;;;;;;224.77;57.67;;;;;;;;;;5090399;28;20849;-43
2024/02/03 06:41:50;;;;;;;228.43;58.42;;;;;;;;;;5089569;28;20942;-44
2024/02/03 06:44:16;;;;;;;224.65;57.03;;;;;;;;;;5082956;28;20185;-43
2024/02/03 06:46:41;;;;;;;225.73;56.27;;;;;;;;;;5088563;28;20566;-43
2024/02/03 06:49:07;;;;;;;225.40;57.03;;;;;;;;;;5084821;28;20409;-43
2024/02/03 06:51:33;;;;;;;226.87;58.47;;;;;;;;;;5084675;28;20500;-44
2024/02/03 06:53:59;;;;;;;224.87;56.43;;;;;;;;;;5084600;28;20420;-43
2024/02/03 06:56:25;;;;;;;221.13;54.53;;;;;;;;;;5072021;28;20467;-45
2024/02/03 06:58:52;;;;;;;226.20;58.90;;;;;;;;;;5080196;28;20895;-43
2024/02/03 07:01:18;;;;;;;225.02;57.33;;;;;;;;;;5076580;28;20561;-43
2024/02/03 07:03:44;;;;;;;226.13;58.40;;;;;;;;;;5075721;28;20178;-43
2024/02/03 07:06:12;;;;;;;225.30;57.17;;;;;;;;;;5087909;28;20419;-44
2024/02/03 07:08:38;;;;;;;225.32;57.78;;;;;;;;;;5080849;28;20420;-43
2024/02/03 07:11:04;;;;;;;224.63;55.57;;;;;;;;;;5082186;28;20274;-44
2024/02/03 07:13:30;;;;;;;230.50;60.65;;;;;;;;;;5078000;28;20413;-44
2024/02/03 07:15:56;;;;;;;228.18;58.42;;;;;;;;;;5084716;28;20201;-44
2024/02/03 07:18:23;;;;;;;225.57;57.17;;;;;;;;;;5084173;28;20196;-44
2024/02/03 07:20:50;;;;;;;226.98;58.90;;;;;;;;;;5084032;28;20579;-44
2024/02/03 07:23:16;;;;;;;227.90;57.80;;;;;;;;;;5084657;28;20332;-46
2024/02/03 07:25:42;;;;;;;227.07;57.95;;;;;;;;;;5083989;28;20173;-44
2024/02/03 07:28:08;;;;;;;233.50;62.30;;;;;;;;;;5080518;28;20189;-44
2024/02/03 07:30:34;;;;;;;224.37;56.97;;;;;;;;;;5073359;28;20502;-44
2024/02/03 07:33:01;;;;;;;224.15;57.80;;;;;;;;;;5086529;28;20432;-44
2024/02/03 07:35:29;;;;;;;225.00;56.72;;;;;;;;;;5079655;28;20202;-43
2024/02/03 07:37:55;;;;;;;230.05;59.83;;;;;;;;;;5073453;28;20652;-44
2024/02/03 07:40:22;;;;;;;226.70;57.00;;;;;;;;;;5088538;28;20177;-43
2024/02/03 07:42:48;;;;;;;227.40;58.95;;;;;;;;;;5084225;28;20197;-43
2024/02/03 07:45:15;;;;;;;227.37;58.87;;;;;;;;;;5083818;28;20652;-44
2024/02/03 07:47:41;;;;;;;226.63;57.45;;;;;;;;;;5088720;28;20411;-44
2024/02/03 07:50:09;;;;;;;224.97;57.80;;;;;;;;;;5090708;28;20607;-43
2024/02/03 07:52:35;;;;;;;227.68;59.17;;;;;;;;;;5081843;28;20424;-43
2024/02/03 07:55:03;;;;;;;234.25;65.07;;;;;;;;;;5087064;28;20275;-44
2024/02/03 07:57:29;;;;;;;226.50;57.20;;;;;;;;;;5070051;28;20166;-46
2024/02/03 07:59:56;;;;;;;223.30;54.60;;;;;;;;;;5082951;28;20558;-45
2024/02/03 08:02:23;;;;;;;225.18;58.00;;;;;;;;;;5084551;28;20776;-45
2024/02/03 08:04:49;;;;;;;227.85;58.42;;;;;;;;;;5088413;28;20548;-45
2024/02/03 08:07:16;;;;;;;226.50;55.67;;;;;;;;;;5093086;28;20180;-45
2024/02/03 08:09:42;;;;;;;227.10;58.63;;;;;;;;;;5085637;28;20762;-44
2024/02/03 08:12:08;;;;;;;226.03;57.00;;;;;;;;;;5086778;28;20195;-46
2024/02/03 08:14:36;;;;;;;229.68;59.90;;;;;;;;;;5088957;28;20438;-46
2024/02/03 08:17:02;;;;;;;226.25;58.38;;;;;;;;;;5084467;28;20197;-46
2024/02/03 08:19:28;;;;;;;224.33;56.60;;;;;;;;;;5093310;28;20224;-46
2024/02/03 08:21:53;;;;;;;225.87;57.07;;;;;;;;;;5094153;28;20439;-45
2024/02/03 08:24:19;;;;;;;229.80;59.93;;;;;;;;;;5088523;28;20443;-45
2024/02/03 08:26:46;;;;;;;224.48;57.00;;;;;;;;;;5089087;28;20415;-45
2024/02/03 08:29:11;;;;;;;225.25;56.80;;;;;;;;;;5089107;28;20595;-45
2024/02/03 08:31:38;;;;;;;227.60;58.40;;;;;;;;;;5089332;28;20192;-45
2024/02/03 08:34:04;;;;;;;226.45;58.60;;;;;;;;;;5088893;28;20884;-45
2024/02/03 08:36:29;;;;;;;226.57;59.63;;;;;;;;;;5092741;28;20210;-45
2024/02/03 08:38:56;;;;;;;225.10;57.40;;;;;;;;;;5093529;28;20415;-45
2024/02/03 08:41:22;;;;;;;228.57;59.17;;;;;;;;;;5079377;28;20926;-45
2024/02/03 08:43:48;;;;;;;226.90;58.70;;;;;;;;;;5091890;28;20181;-45
2024/02/03 08:46:13;;;;;;;226.43;58.40;;;;;;;;;;5088556;28;20446;-45
2024/02/03 08:48:41;;;;;;;225.67;57.70;;;;;;;;;;5088812;28;20407;-44
2024/02/03 08:51:08;;;;;;;231.93;62.83;;;;;;;;;;5093687;28;20453;-45
2024/02/03 08:53:34;;;;;;;231.43;63.97;;;;;;;;;;5091344;28;20177;-45
2024/02/03 08:56:01;;;;;;;227.77;60.43;;;;;;;;;;5081099;28;20201;-45
2024/02/03 08:58:28;;;;;;;227.63;58.92;;;;;;;;;;5079339;28;20480;-46
2024/02/03 09:00:54;;;;;;;227.07;58.25;;;;;;;;;;5080613;28;20190;-45
2024/02/03 09:03:21;;;;;;;229.50;62.57;;;;;;;;;;5094732;28;20172;-44
2024/02/03 09:05:47;;;;;;;228.85;61.17;;;;;;;;;;5079288;28;20423;-45
2024/02/03 09:08:13;;;;;;;229.13;61.30;;;;;;;;;;5075688;28;20179;-45
2024/02/03 09:10:40;;;;;;;227.37;59.20;;;;;;;;;;5090552;28;20447;-45
2024/02/03 09:13:06;;;;;;;231.13;60.97;;;;;;;;;;5084035;28;20470;-45
2024/02/03 09:15:32;;;;;;;228.97;60.80;;;;;;;;;;5081801;28;20630;-46
2024/02/03 09:17:59;;;;;;;227.97;59.60;;;;;;;;;;5088502;28;20803;-44
2024/02/03 09:20:25;;;;;;;227.82;58.85;;;;;;;;;;5088867;28;20396;-45
2024/02/03 09:22:51;;;;;;;229.37;60.47;;;;;;;;;;5088982;28;20206;-46
2024/02/03 09:25:19;;;;;;;226.93;58.72;;;;;;;;;;5091968;28;20413;-46
2024/02/03 09:27:45;;;;;;;229.65;61.83;;;;;;;;;;5091870;28;20260;-44
2024/02/03 09:30:13;;;;;;;228.77;60.27;;;;;;;;;;5086489;28;20212;-44
2024/02/03 09:32:39;;;;;;;229.07;58.88;;;;;;;;;;5085398;28;20428;-44
2024/02/03 09:35:06;;;;;;;227.10;58.47;;;;;;;;;;5078270;28;20324;-44
2024/02/03 09:37:33;;;;;;;228.35;59.90;;;;;;;;;;5085888;28;20412;-45
2024/02/03 09:39:59;;;;;;;227.38;57.67;;;;;;;;;;5093784;28;20186;-44
2024/02/03 09:42:25;;;;;;;230.20;60.50;;;;;;;;;;5088923;28;20669;-44
2024/02/03 09:44:51;;;;;;;228.73;58.38;;;;;;;;;;5082055;28;20413;-44
2024/02/03 09:47:19;;;;;;;230.97;62.03;;;;;;;;;;5090676;28;20181;-44
2024/02/03 09:49:45;;;;;;;231.57;63.30;;;;;;;;;;5083961;28;20412;-44
2024/02/03 09:52:14;;;;;;;230.90;61.47;;;;;;;;;;5085375;28;20220;-44
2024/02/03 09:54:46;;;;;;;230.18;60.63;;;;;;;;;;5085261;28;20410;-44
2024/02/03 09:57:12;;;;;;;231.45;60.42;;;;;;;;;;5085518;28;20170;-44
2024/02/03 09:59:39;;;;;;;230.50;62.28;;;;;;;;;;5087854;28;20253;-44
2024/02/03 10:02:06;;;;;;;230.10;61.55;;;;;;;;;;5080503;28;20565;-44
2024/02/03 10:04:38;;;;;;;228.15;58.97;;;;;;;;;;5090063;28;20169;-45
2024/02/03 10:07:05;;;;;;;230.65;60.40;;;;;;;;;;5093719;28;20192;-45
2024/02/03 10:09:31;;;;;;;227.43;56.80;;;;;;;;;;5093576;28;20202;-44
2024/02/03 10:11:57;;;;;;;226.63;56.83;;;;;;;;;;5085038;28;20697;-44
2024/02/03 10:14:23;;;;;;;226.17;55.87;;;;;;;;;;5070006;28;20408;-44
2024/02/03 10:16:49;;;;;;;228.13;57.60;;;;;;;;;;5066633;28;20551;-45
2024/02/03 10:19:15;;;;;;;227.98;57.40;;;;;;;;;;5093349;28;20933;-44
2024/02/03 10:21:41;;;;;;;228.85;57.97;;;;;;;;;;5082896;28;20199;-44
2024/02/03 10:24:07;;;;;;;235.15;63.70;;;;;;;;;;5087576;28;20181;-44
2024/02/03 10:26:34;;;;;;;232.40;62.72;;;;;;;;;;5084961;28;20179;-44
2024/02/03 10:29:00;;;;;;;232.18;60.28;;;;;;;;;;5083097;28;20182;-44
2024/02/03 10:31:26;;;;;;;232.45;60.67;;;;;;;;;;5071430;28;20577;-44
2024/02/03 10:33:56;;;;;;;234.90;64.18;;;;;;;;;;5075249;28;20177;-44
2024/02/03 10:36:22;;;;;;;230.00;60.53;;;;;;;;;;5073952;28;20294;-44
2024/02/03 10:38:52;;;;;;;229.03;59.07;;;;;;;;;;5085782;28;20681;-44
2024/02/03 10:41:21;;;;;;;229.65;58.13;;;;;;;;;;5074972;28;20974;-44
2024/02/03 10:43:50;;;;;;;228.68;59.90;;;;;;;;;;5074012;28;20178;-44
2024/02/03 10:46:17;;;;;;;228.90;60.58;;;;;;;;;;5084124;28;20177;-44
2024/02/03 10:48:45;;;;;;;231.48;63.17;;;;;;;;;;5087367;28;20264;-44
2024/02/03 10:51:31;;;;;;;227.85;57.90;;;;;;;;;;5073504;28;20557;-45
2024/02/03 10:53:59;;;;;;;227.90;58.38;;;;;;;;;;5080454;28;20188;-44
2024/02/03 10:56:28;;;;;;;230.25;61.13;;;;;;;;;;5077853;28;20200;-44
2024/02/03 10:58:55;;;;;;;228.48;60.22;;;;;;;;;;5084305;28;20656;-44
2024/02/03 11:01:21;;;;;;;229.52;58.78;;;;;;;;;;5084105;28;20602;-44
2024/02/03 11:03:48;;;;;;;227.57;57.97;;;;;;;;;;5085222;28;20170;-44
2024/02/03 11:06:23;;;;;;;227.10;56.38;;;;;;;;;;5091414;28;20408;-44
2024/02/03 11:08:49;;;;;;;229.80;58.00;;;;;;;;;;5092408;28;20172;-44
2024/02/03 11:11:24;;;;;;;226.47;56.20;;;;;;;;;;5085447;28;20570;-44
2024/02/03 11:13:50;;;;;;;227.57;57.45;;;;;;;;;;5076485;28;20407;-44
2024/02/03 11:16:16;;;;;;;226.73;57.00;;;;;;;;;;5087667;28;20205;-44
2024/02/03 11:18:42;;;;;;;228.73;60.17;;;;;;;;;;5083908;28;20414;-44
2024/02/03 11:21:08;;;;;;;229.50;59.22;;;;;;;;;;5083724;28;20461;-44
2024/02/03 11:23:35;;;;;;;231.43;62.50;;;;;;;;;;5086911;28;20645;-44
2024/02/03 11:26:01;;;;;;;229.00;58.88;;;;;;;;;;5090671;28;20185;-44
2024/02/03 11:28:30;;;;;;;228.98;60.58;;;;;;;;;;5087967;28;20665;-44
2024/02/03 11:31:09;;;;;;;227.52;58.95;;;;;;;;;;5088392;28;20177;-44
2024/02/03 11:33:47;;;;;;;229.77;61.40;;;;;;;;;;5080054;28;20181;-44
2024/02/03 11:36:13;;;;;;;230.38;60.50;;;;;;;;;;5083149;28;20679;-44
2024/02/03 11:38:45;;;;;;;228.37;59.77;;;;;;;;;;5084953;28;20180;-44
2024/02/03 11:41:11;;;;;;;227.73;57.97;;;;;;;;;;5086419;28;20794;-44
2024/02/03 11:43:38;;;;;;;232.75;64.18;;;;;;;;;;5088068;28;20170;-44
2024/02/03 11:46:09;;;;;;;230.48;61.33;;;;;;;;;;5083510;28;20240;-44
2024/02/03 11:48:38;;;;;;;229.95;59.13;;;;;;;;;;5086282;28;20209;-44
2024/02/03 11:51:21;;;;;;;228.45;58.15;;;;;;;;;;5076211;28;20201;-44
2024/02/03 11:53:49;;;;;;;228.93;57.97;;;;;;;;;;5084460;28;20178;-44
2024/02/03 11:56:16;;;;;;;229.10;58.65;;;;;;;;;;5088159;28;20190;-44
2024/02/03 11:58:42;;;;;;;231.30;60.45;;;;;;;;;;5086255;28;20173;-44
2024/02/03 12:01:08;;;;;;;228.37;59.07;;;;;;;;;;5088257;28;20600;-44
2024/02/03 12:03:36;;;;;;;232.25;62.65;;;;;;;;;;5091140;28;20445;-44
2024/02/03 12:06:03;;;;;;;232.98;63.22;;;;;;;;;;5084424;28;20178;-44
2024/02/03 12:08:29;;;;;;;229.98;59.75;;;;;;;;;;5083788;28;20162;-44
2024/02/03 12:10:57;;;;;;;232.27;60.85;;;;;;;;;;5083243;28;20193;-44
2024/02/03 12:13:24;;;;;;;239.27;67.20;;;;;;;;;;5086848;28;20173;-45
2024/02/03 12:15:55;;;;;;;229.55;57.95;;;;;;;;;;5084975;28;20247;-44
2024/02/03 12:18:24;;;;;;;228.90;59.17;;;;;;;;;;5079876;28;20548;-45
2024/02/03 12:20:53;;;;;;;231.17;60.30;;;;;;;;;;5071188;28;20265;-44
2024/02/03 12:23:20;;;;;;;228.02;58.20;;;;;;;;;;5077210;28;20769;-45
2024/02/03 12:25:48;;;;;;;230.00;59.83;;;;;;;;;;5091657;28;20209;-44
2024/02/03 12:28:17;;;;;;;229.75;59.72;;;;;;;;;;5091592;28;20171;-45
2024/02/03 12:30:44;;;;;;;229.73;59.72;;;;;;;;;;5091615;28;20168;-44
2024/02/03 12:33:10;;;;;;;230.45;59.22;;;;;;;;;;5073321;28;20197;-44
2024/02/03 12:35:36;;;;;;;233.37;64.50;;;;;;;;;;5085871;28;20207;-44
2024/02/03 12:38:02;;;;;;;230.10;60.03;;;;;;;;;;5091640;28;20404;-44
2024/02/03 12:40:28;;;;;;;228.55;59.60;;;;;;;;;;5082442;28;20174;-44
2024/02/03 12:42:54;;;;;;;231.25;61.20;;;;;;;;;;5076981;28;20197;-44
2024/02/03 12:45:20;;;;;;;229.77;59.77;;;;;;;;;;5091156;28;20680;-44
2024/02/03 12:47:46;;;;;;;230.10;61.03;;;;;;;;;;5091440;28;20402;-45
2024/02/03 12:50:12;;;;;;;234.73;64.77;;;;;;;;;;5091168;28;20174;-44
2024/02/03 12:52:38;;;;;;;230.70;62.17;;;;;;;;;;5091043;28;20504;-45
2024/02/03 12:55:05;;;;;;;232.15;61.47;;;;;;;;;;5090973;28;20396;-44
2024/02/03 12:57:31;;;;;;;229.77;60.92;;;;;;;;;;5091307;28;20169;-44
2024/02/03 12:59:58;;;;;;;231.83;61.43;;;;;;;;;;5093739;28;20731;-44
2024/02/03 13:02:24;;;;;;;232.63;63.15;;;;;;;;;;5089910;28;20425;-44
2024/02/03 13:04:51;;;;;;;230.50;60.30;;;;;;;;;;5076148;28;20630;-44
2024/02/03 13:07:17;;;;;;;232.40;62.33;;;;;;;;;;5095082;28;20776;-45
2024/02/03 13:09:43;;;;;;;231.13;60.77;;;;;;;;;;5075665;28;20182;-44
2024/02/03 13:12:09;;;;;;;230.55;60.65;;;;;;;;;;5088692;28;20427;-44
2024/02/03 13:14:36;;;;;;;233.35;63.00;;;;;;;;;;5086581;28;20177;-44
2024/02/03 13:17:03;;;;;;;232.10;61.38;;;;;;;;;;5085970;28;20190;-44
2024/02/03 13:19:29;;;;;;;233.35;64.03;;;;;;;;;;5088703;28;20250;-44
2024/02/03 13:21:57;;;;;;;232.13;63.07;;;;;;;;;;5090464;28;20224;-44
2024/02/03 13:24:25;;;;;;;234.38;63.85;;;;;;;;;;5094721;28;20404;-44
2024/02/03 13:26:52;;;;;;;232.98;63.30;;;;;;;;;;5086941;28;20163;-45
2024/02/03 13:29:18;;;;;;;231.27;61.13;;;;;;;;;;5082503;28;20518;-44
2024/02/03 13:31:44;;;;;;;233.13;63.40;;;;;;;;;;5083191;28;20202;-44
2024/02/03 13:34:10;;;;;;;233.60;64.77;;;;;;;;;;5090522;28;20194;-44
2024/02/03 13:36:36;;;;;;;231.23;62.50;;;;;;;;;;5087692;28;20470;-45
2024/02/03 13:39:02;;;;;;;230.43;62.75;;;;;;;;;;5085755;28;20435;-44
2024/02/03 13:41:28;;;;;;;229.40;60.88;;;;;;;;;;5093364;28;20687;-44
2024/02/03 13:43:55;;;;;;;231.52;61.13;;;;;;;;;;5086502;28;20355;-44
2024/02/03 13:46:21;;;;;;;232.77;64.32;;;;;;;;;;5085575;28;20943;-44
2024/02/03 13:48:47;;;;;;;229.47;59.73;;;;;;;;;;5086893;28;20239;-44
2024/02/03 13:51:13;;;;;;;228.93;59.17;;;;;;;;;;5084253;28;20428;-45
2024/02/03 13:53:39;;;;;;;231.47;62.83;;;;;;;;;;5091257;28;20417;-44
2024/02/03 13:56:05;;;;;;;233.05;63.53;;;;;;;;;;5085283;28;20448;-45
2024/02/03 13:58:32;;;;;;;230.30;60.30;;;;;;;;;;5085615;28;20177;-45
2024/02/03 14:00:57;;;;;;;230.70;61.40;;;;;;;;;;5079174;28;20556;-44